sensor_id;sensor_type;location;lat;lon;timestamp;temperature;humidity
11264;DHT22;5689;48.798;9.070;2022-08-25T00:02:07;21.00;99.90
11264;DHT22;5689;48.798;9.070;2022-08-25T00:04:37;20.80;99.90
11264;DHT22;5689;48.798;9.070;2022-08-25T00:07:05;20.80;99.90
11264;DHT22;5689;48.798;9.070;2022-08-25T00:09:34;20.70;99.90
11264;DHT22;5689;48.798;9.070;2022-08-25T00:12:03;20.70;99.90
11264;DHT22;5689;48.798;9.070;2022-08-25T00:14:35;20.70;99.90
11264;DHT22;5689;48.798;9.070;2022-08-25T00:17:05;20.60;99.90
11264;DHT22;5689;48.798;9.070;2022-08-25T00:19:35;20.40;99.90
11264;DHT22;5689;48.798;9.070;2022-08-25T00:22:04;20.20;99.90
11264;DHT22;5689;48.798;9.070;2022-08-25T00:24:33;20.10;99.90
11264;DHT22;5689;48.798;9.070;2022-08-25T00:27:02;20.10;99.90
11264;DHT22;5689;48.798;9.070;2022-08-25T00:29:31;20.20;99.90
11264;DHT22;5689;48.798;9.070;2022-08-25T00:32:00;20.10;99.90
11264;DHT22;5689;48.798;9.070;2022-08-25T00:34:32;20.00;99.90
11264;DHT22;5689;48.798;9.070;2022-08-25T00:37:01;19.80;99.90
11264;DHT22;5689;48.798;9.070;2022-08-25T00:39:29;19.70;99.90
11264;DHT22;5689;48.798;9.070;2022-08-25T00:41:58;19.70;99.90
11264;DHT22;5689;48.798;9.070;2022-08-25T00:44:28;19.70;99.90
11264;DHT22;5689;48.798;9.070;2022-08-25T00:46:59;19.70;99.90
11264;DHT22;5689;48.798;9.070;2022-08-25T00:49:34;19.60;99.90
11264;DHT22;5689;48.798;9.070;2022-08-25T00:52:06;19.60;99.90
11264;DHT22;5689;48.798;9.070;2022-08-25T00:54:38;19.60;99.90
11264;DHT22;5689;48.798;9.070;2022-08-25T00:57:09;19.50;99.90
11264;DHT22;5689;48.798;9.070;2022-08-25T00:59:39;19.60;99.90
11264;DHT22;5689;48.798;9.070;2022-08-25T01:02:09;19.50;99.90
11264;DHT22;5689;48.798;9.070;2022-08-25T01:04:38;19.60;99.90
11264;DHT22;5689;48.798;9.070;2022-08-25T01:07:07;19.50;99.90
11264;DHT22;5689;48.798;9.070;2022-08-25T01:09:35;19.40;99.90
11264;DHT22;5689;48.798;9.070;2022-08-25T01:12:05;19.30;99.90
11264;DHT22;5689;48.798;9.070;2022-08-25T01:14:33;19.20;99.90
11264;DHT22;5689;48.798;9.070;2022-08-25T01:17:02;19.10;99.90
11264;DHT22;5689;48.798;9.070;2022-08-25T01:19:30;19.10;99.90
11264;DHT22;5689;48.798;9.070;2022-08-25T01:22:00;19.10;99.90
11264;DHT22;5689;48.798;9.070;2022-08-25T01:24:34;19.10;99.90
11264;DHT22;5689;48.798;9.070;2022-08-25T01:27:05;19.20;99.90
11264;DHT22;5689;48.798;9.070;2022-08-25T01:29:34;19.20;99.90
11264;DHT22;5689;48.798;9.070;2022-08-25T01:32:05;19.00;99.90
11264;DHT22;5689;48.798;9.070;2022-08-25T01:34:36;18.90;99.90
11264;DHT22;5689;48.798;9.070;2022-08-25T01:37:07;18.90;99.90
11264;DHT22;5689;48.798;9.070;2022-08-25T01:39:35;19.00;99.90
11264;DHT22;5689;48.798;9.070;2022-08-25T01:42:23;19.00;99.90
11264;DHT22;5689;48.798;9.070;2022-08-25T01:44:54;18.80;99.90
11264;DHT22;5689;48.798;9.070;2022-08-25T01:47:23;18.70;99.90
11264;DHT22;5689;48.798;9.070;2022-08-25T01:49:51;18.70;99.90
11264;DHT22;5689;48.798;9.070;2022-08-25T01:52:24;18.80;99.90
11264;DHT22;5689;48.798;9.070;2022-08-25T01:54:54;18.80;99.90
11264;DHT22;5689;48.798;9.070;2022-08-25T01:57:22;18.60;99.90
11264;DHT22;5689;48.798;9.070;2022-08-25T01:59:50;18.50;99.90
11264;DHT22;5689;48.798;9.070;2022-08-25T02:02:19;18.50;99.90
11264;DHT22;5689;48.798;9.070;2022-08-25T02:04:47;18.50;99.90
11264;DHT22;5689;48.798;9.070;2022-08-25T02:07:15;18.40;99.90
11264;DHT22;5689;48.798;9.070;2022-08-25T02:09:44;18.50;99.90
11264;DHT22;5689;48.798;9.070;2022-08-25T02:12:12;18.50;99.90
11264;DHT22;5689;48.798;9.070;2022-08-25T02:14:41;18.40;99.90
11264;DHT22;5689;48.798;9.070;2022-08-25T02:17:09;18.30;99.90
11264;DHT22;5689;48.798;9.070;2022-08-25T02:19:37;18.30;99.90
11264;DHT22;5689;48.798;9.070;2022-08-25T02:22:05;18.30;99.90
11264;DHT22;5689;48.798;9.070;2022-08-25T02:24:33;18.30;99.90
11264;DHT22;5689;48.798;9.070;2022-08-25T02:27:03;18.30;99.90
11264;DHT22;5689;48.798;9.070;2022-08-25T02:29:31;18.40;99.90
11264;DHT22;5689;48.798;9.070;2022-08-25T02:31:59;18.30;99.90
11264;DHT22;5689;48.798;9.070;2022-08-25T02:34:27;18.30;99.90
11264;DHT22;5689;48.798;9.070;2022-08-25T02:36:55;18.10;99.90
11264;DHT22;5689;48.798;9.070;2022-08-25T02:39:23;18.10;99.90
11264;DHT22;5689;48.798;9.070;2022-08-25T02:41:51;18.00;99.90
11264;DHT22;5689;48.798;9.070;2022-08-25T02:44:21;18.00;99.90
11264;DHT22;5689;48.798;9.070;2022-08-25T02:46:49;17.90;99.90
11264;DHT22;5689;48.798;9.070;2022-08-25T02:49:17;18.00;99.90
11264;DHT22;5689;48.798;9.070;2022-08-25T02:51:45;18.00;99.90
11264;DHT22;5689;48.798;9.070;2022-08-25T02:54:13;18.10;99.90
11264;DHT22;5689;48.798;9.070;2022-08-25T02:56:41;18.10;99.90
11264;DHT22;5689;48.798;9.070;2022-08-25T02:59:10;18.00;99.90
11264;DHT22;5689;48.798;9.070;2022-08-25T03:01:39;18.00;99.90
11264;DHT22;5689;48.798;9.070;2022-08-25T03:04:07;18.00;99.90
11264;DHT22;5689;48.798;9.070;2022-08-25T03:06:35;18.00;99.90
11264;DHT22;5689;48.798;9.070;2022-08-25T03:09:03;17.90;99.90
11264;DHT22;5689;48.798;9.070;2022-08-25T03:11:32;18.10;99.90
11264;DHT22;5689;48.798;9.070;2022-08-25T03:14:00;18.00;99.90
11264;DHT22;5689;48.798;9.070;2022-08-25T03:16:28;17.90;99.90
11264;DHT22;5689;48.798;9.070;2022-08-25T03:18:57;17.80;99.90
11264;DHT22;5689;48.798;9.070;2022-08-25T03:21:26;17.80;99.90
11264;DHT22;5689;48.798;9.070;2022-08-25T03:23:56;17.80;99.90
11264;DHT22;5689;48.798;9.070;2022-08-25T03:26:25;17.90;99.90
11264;DHT22;5689;48.798;9.070;2022-08-25T03:29:10;17.70;99.90
11264;DHT22;5689;48.798;9.070;2022-08-25T03:31:40;17.60;99.90
11264;DHT22;5689;48.798;9.070;2022-08-25T03:34:11;17.50;99.90
11264;DHT22;5689;48.798;9.070;2022-08-25T03:36:39;17.50;99.90
11264;DHT22;5689;48.798;9.070;2022-08-25T03:39:07;17.60;99.90
11264;DHT22;5689;48.798;9.070;2022-08-25T03:41:35;17.60;99.90
11264;DHT22;5689;48.798;9.070;2022-08-25T03:44:05;17.50;99.90
11264;DHT22;5689;48.798;9.070;2022-08-25T03:46:36;17.60;99.90
11264;DHT22;5689;48.798;9.070;2022-08-25T03:49:11;17.40;99.90
11264;DHT22;5689;48.798;9.070;2022-08-25T03:51:43;17.40;99.90
11264;DHT22;5689;48.798;9.070;2022-08-25T03:54:14;17.30;99.90
11264;DHT22;5689;48.798;9.070;2022-08-25T03:56:42;17.50;99.90
11264;DHT22;5689;48.798;9.070;2022-08-25T03:59:11;17.50;99.90
11264;DHT22;5689;48.798;9.070;2022-08-25T04:01:41;17.50;99.90
11264;DHT22;5689;48.798;9.070;2022-08-25T04:04:10;17.30;99.90
11264;DHT22;5689;48.798;9.070;2022-08-25T04:06:41;17.20;99.90
11264;DHT22;5689;48.798;9.070;2022-08-25T04:09:10;17.10;99.90
11264;DHT22;5689;48.798;9.070;2022-08-25T04:11:39;17.10;99.90
11264;DHT22;5689;48.798;9.070;2022-08-25T04:14:07;17.00;99.90
11264;DHT22;5689;48.798;9.070;2022-08-25T04:16:35;16.80;99.90
11264;DHT22;5689;48.798;9.070;2022-08-25T04:19:06;16.80;99.90
11264;DHT22;5689;48.798;9.070;2022-08-25T04:21:35;16.80;99.90
11264;DHT22;5689;48.798;9.070;2022-08-25T04:24:07;16.80;99.90
11264;DHT22;5689;48.798;9.070;2022-08-25T04:26:38;16.90;99.90
11264;DHT22;5689;48.798;9.070;2022-08-25T04:29:07;16.80;99.90
11264;DHT22;5689;48.798;9.070;2022-08-25T04:31:38;16.70;99.90
11264;DHT22;5689;48.798;9.070;2022-08-25T04:34:07;16.70;99.90
11264;DHT22;5689;48.798;9.070;2022-08-25T04:36:36;16.80;99.90
11264;DHT22;5689;48.798;9.070;2022-08-25T04:39:06;16.80;99.90
11264;DHT22;5689;48.798;9.070;2022-08-25T04:41:34;16.80;99.90
11264;DHT22;5689;48.798;9.070;2022-08-25T04:44:03;16.80;99.90
11264;DHT22;5689;48.798;9.070;2022-08-25T04:46:32;16.80;99.90
11264;DHT22;5689;48.798;9.070;2022-08-25T04:49:01;17.00;99.90
11264;DHT22;5689;48.798;9.070;2022-08-25T04:51:32;17.00;99.90
11264;DHT22;5689;48.798;9.070;2022-08-25T04:54:04;16.90;99.90
11264;DHT22;5689;48.798;9.070;2022-08-25T04:56:34;16.90;99.90
11264;DHT22;5689;48.798;9.070;2022-08-25T04:59:05;16.80;99.90
11264;DHT22;5689;48.798;9.070;2022-08-25T05:01:34;16.90;99.90
11264;DHT22;5689;48.798;9.070;2022-08-25T05:04:05;17.00;99.90
11264;DHT22;5689;48.798;9.070;2022-08-25T05:06:33;17.10;99.90
11264;DHT22;5689;48.798;9.070;2022-08-25T05:09:02;17.20;99.90
11264;DHT22;5689;48.798;9.070;2022-08-25T05:11:30;17.10;99.90
11264;DHT22;5689;48.798;9.070;2022-08-25T05:14:01;17.30;99.90
11264;DHT22;5689;48.798;9.070;2022-08-25T05:16:29;17.50;99.90
11264;DHT22;5689;48.798;9.070;2022-08-25T05:18:58;17.60;99.90
11264;DHT22;5689;48.798;9.070;2022-08-25T05:21:26;17.70;99.90
11264;DHT22;5689;48.798;9.070;2022-08-25T05:23:56;17.60;99.90
11264;DHT22;5689;48.798;9.070;2022-08-25T05:26:26;17.60;99.90
11264;DHT22;5689;48.798;9.070;2022-08-25T05:28:57;17.60;99.90
11264;DHT22;5689;48.798;9.070;2022-08-25T05:31:27;17.70;99.90
11264;DHT22;5689;48.798;9.070;2022-08-25T05:33:56;17.70;99.90
11264;DHT22;5689;48.798;9.070;2022-08-25T05:36:26;17.80;99.90
11264;DHT22;5689;48.798;9.070;2022-08-25T05:38:55;17.80;99.90
11264;DHT22;5689;48.798;9.070;2022-08-25T05:41:26;17.90;99.90
11264;DHT22;5689;48.798;9.070;2022-08-25T05:43:54;18.10;99.90
11264;DHT22;5689;48.798;9.070;2022-08-25T05:46:22;18.40;99.90
11264;DHT22;5689;48.798;9.070;2022-08-25T05:48:52;18.80;99.90
11264;DHT22;5689;48.798;9.070;2022-08-25T05:51:20;19.40;99.90
11264;DHT22;5689;48.798;9.070;2022-08-25T05:53:49;20.10;99.90
11264;DHT22;5689;48.798;9.070;2022-08-25T05:56:18;20.50;99.90
11264;DHT22;5689;48.798;9.070;2022-08-25T05:58:46;21.10;99.90
11264;DHT22;5689;48.798;9.070;2022-08-25T06:01:20;22.20;99.90
11264;DHT22;5689;48.798;9.070;2022-08-25T06:04:07;23.30;99.90
11264;DHT22;5689;48.798;9.070;2022-08-25T06:06:35;23.30;99.90
11264;DHT22;5689;48.798;9.070;2022-08-25T06:09:04;23.60;99.90
11264;DHT22;5689;48.798;9.070;2022-08-25T06:11:35;23.70;99.90
11264;DHT22;5689;48.798;9.070;2022-08-25T06:14:05;24.10;99.90
11264;DHT22;5689;48.798;9.070;2022-08-25T06:16:34;24.70;99.90
11264;DHT22;5689;48.798;9.070;2022-08-25T06:19:02;24.90;99.90
11264;DHT22;5689;48.798;9.070;2022-08-25T06:21:32;24.80;99.90
11264;DHT22;5689;48.798;9.070;2022-08-25T06:24:00;25.20;99.90
11264;DHT22;5689;48.798;9.070;2022-08-25T06:26:28;25.30;99.90
11264;DHT22;5689;48.798;9.070;2022-08-25T06:28:56;25.20;99.90
11264;DHT22;5689;48.798;9.070;2022-08-25T06:31:25;24.90;99.90
11264;DHT22;5689;48.798;9.070;2022-08-25T06:33:53;24.90;99.90
11264;DHT22;5689;48.798;9.070;2022-08-25T06:36:20;25.40;99.90
11264;DHT22;5689;48.798;9.070;2022-08-25T06:38:51;25.20;99.90
11264;DHT22;5689;48.798;9.070;2022-08-25T06:41:20;25.40;99.90
11264;DHT22;5689;48.798;9.070;2022-08-25T06:43:48;25.90;99.90
11264;DHT22;5689;48.798;9.070;2022-08-25T06:46:21;26.30;99.90
11264;DHT22;5689;48.798;9.070;2022-08-25T06:48:49;27.20;99.90
11264;DHT22;5689;48.798;9.070;2022-08-25T06:51:19;27.60;98.50
11264;DHT22;5689;48.798;9.070;2022-08-25T06:53:49;27.90;97.50
11264;DHT22;5689;48.798;9.070;2022-08-25T06:56:19;26.90;98.70
11264;DHT22;5689;48.798;9.070;2022-08-25T06:58:48;27.30;98.30
11264;DHT22;5689;48.798;9.070;2022-08-25T07:01:18;27.60;97.20
11264;DHT22;5689;48.798;9.070;2022-08-25T07:03:49;28.50;95.90
11264;DHT22;5689;48.798;9.070;2022-08-25T07:06:17;27.80;96.30
11264;DHT22;5689;48.798;9.070;2022-08-25T07:08:46;26.30;98.60
11264;DHT22;5689;48.798;9.070;2022-08-25T07:11:16;25.90;99.90
11264;DHT22;5689;48.798;9.070;2022-08-25T07:13:44;26.70;99.40
11264;DHT22;5689;48.798;9.070;2022-08-25T07:16:13;27.80;97.70
11264;DHT22;5689;48.798;9.070;2022-08-25T07:18:42;27.90;96.50
11264;DHT22;5689;48.798;9.070;2022-08-25T07:21:10;27.80;97.30
11264;DHT22;5689;48.798;9.070;2022-08-25T07:23:39;29.00;94.70
11264;DHT22;5689;48.798;9.070;2022-08-25T07:26:09;29.70;93.40
11264;DHT22;5689;48.798;9.070;2022-08-25T07:28:48;29.70;93.20
11264;DHT22;5689;48.798;9.070;2022-08-25T07:31:16;30.10;91.30
11264;DHT22;5689;48.798;9.070;2022-08-25T07:33:44;28.70;93.10
11264;DHT22;5689;48.798;9.070;2022-08-25T07:36:26;29.00;93.60
11264;DHT22;5689;48.798;9.070;2022-08-25T07:38:54;30.70;91.20
11264;DHT22;5689;48.798;9.070;2022-08-25T07:41:23;30.50;90.90
11264;DHT22;5689;48.798;9.070;2022-08-25T07:43:53;31.60;87.90
11264;DHT22;5689;48.798;9.070;2022-08-25T07:46:21;32.10;86.50
11264;DHT22;5689;48.798;9.070;2022-08-25T07:48:50;33.00;82.90
11264;DHT22;5689;48.798;9.070;2022-08-25T07:51:18;31.30;83.80
11264;DHT22;5689;48.798;9.070;2022-08-25T07:53:46;31.10;86.40
11264;DHT22;5689;48.798;9.070;2022-08-25T07:56:15;31.70;83.30
11264;DHT22;5689;48.798;9.070;2022-08-25T07:58:46;32.70;81.60
11264;DHT22;5689;48.798;9.070;2022-08-25T08:01:17;32.00;80.10
11264;DHT22;5689;48.798;9.070;2022-08-25T08:03:46;31.70;80.70
11264;DHT22;5689;48.798;9.070;2022-08-25T08:06:15;30.10;85.10
11264;DHT22;5689;48.798;9.070;2022-08-25T08:08:46;30.10;85.70
11264;DHT22;5689;48.798;9.070;2022-08-25T08:11:15;30.40;84.70
11264;DHT22;5689;48.798;9.070;2022-08-25T08:13:44;29.90;85.40
11264;DHT22;5689;48.798;9.070;2022-08-25T08:16:16;29.30;86.40
11264;DHT22;5689;48.798;9.070;2022-08-25T08:18:45;29.90;86.20
11264;DHT22;5689;48.798;9.070;2022-08-25T08:21:15;29.60;86.90
11264;DHT22;5689;48.798;9.070;2022-08-25T08:23:43;30.60;83.90
11264;DHT22;5689;48.798;9.070;2022-08-25T08:26:11;29.40;85.90
11264;DHT22;5689;48.798;9.070;2022-08-25T08:28:39;29.20;87.10
11264;DHT22;5689;48.798;9.070;2022-08-25T08:31:07;30.20;85.20
11264;DHT22;5689;48.798;9.070;2022-08-25T08:33:37;30.30;84.30
11264;DHT22;5689;48.798;9.070;2022-08-25T08:36:07;29.70;84.80
11264;DHT22;5689;48.798;9.070;2022-08-25T08:38:38;29.90;86.00
11264;DHT22;5689;48.798;9.070;2022-08-25T08:41:16;31.00;82.80
11264;DHT22;5689;48.798;9.070;2022-08-25T08:44:20;32.70;79.70
11264;DHT22;5689;48.798;9.070;2022-08-25T08:46:58;32.90;76.80
11264;DHT22;5689;48.798;9.070;2022-08-25T08:49:34;33.40;77.00
11264;DHT22;5689;48.798;9.070;2022-08-25T08:52:05;33.30;76.50
11264;DHT22;5689;48.798;9.070;2022-08-25T08:54:37;32.50;76.40
11264;DHT22;5689;48.798;9.070;2022-08-25T08:57:10;32.40;76.70
11264;DHT22;5689;48.798;9.070;2022-08-25T08:59:44;31.20;79.80
11264;DHT22;5689;48.798;9.070;2022-08-25T09:02:21;32.80;77.00
11264;DHT22;5689;48.798;9.070;2022-08-25T09:04:54;34.20;73.40
11264;DHT22;5689;48.798;9.070;2022-08-25T09:07:29;33.50;73.30
11264;DHT22;5689;48.798;9.070;2022-08-25T09:09:58;33.90;71.60
11264;DHT22;5689;48.798;9.070;2022-08-25T09:12:33;34.10;71.40
11264;DHT22;5689;48.798;9.070;2022-08-25T09:15:08;33.70;71.50
11264;DHT22;5689;48.798;9.070;2022-08-25T09:17:53;33.00;72.50
11264;DHT22;5689;48.798;9.070;2022-08-25T09:20:36;32.30;75.00
11264;DHT22;5689;48.798;9.070;2022-08-25T09:23:24;34.00;71.50
11264;DHT22;5689;48.798;9.070;2022-08-25T09:26:02;33.50;72.10
11264;DHT22;5689;48.798;9.070;2022-08-25T09:28:39;32.70;74.50
11264;DHT22;5689;48.798;9.070;2022-08-25T09:31:16;30.70;77.70
11264;DHT22;5689;48.798;9.070;2022-08-25T09:33:45;31.60;78.10
11264;DHT22;5689;48.798;9.070;2022-08-25T09:36:14;33.90;72.40
11264;DHT22;5689;48.798;9.070;2022-08-25T09:38:42;34.10;71.80
11264;DHT22;5689;48.798;9.070;2022-08-25T09:41:15;35.50;67.90
11264;DHT22;5689;48.798;9.070;2022-08-25T09:43:51;35.60;65.80
11264;DHT22;5689;48.798;9.070;2022-08-25T09:46:25;35.50;66.20
11264;DHT22;5689;48.798;9.070;2022-08-25T09:48:54;37.20;62.10
11264;DHT22;5689;48.798;9.070;2022-08-25T09:51:26;36.50;62.00
11264;DHT22;5689;48.798;9.070;2022-08-25T09:53:56;36.40;62.40
11264;DHT22;5689;48.798;9.070;2022-08-25T09:56:27;33.10;65.00
11264;DHT22;5689;48.798;9.070;2022-08-25T09:59:20;32.60;68.60
11264;DHT22;5689;48.798;9.070;2022-08-25T10:01:49;33.10;68.80
11264;DHT22;5689;48.798;9.070;2022-08-25T10:04:25;34.40;66.50
11264;DHT22;5689;48.798;9.070;2022-08-25T10:06:55;33.40;65.60
11264;DHT22;5689;48.798;9.070;2022-08-25T10:09:27;33.70;66.20
11264;DHT22;5689;48.798;9.070;2022-08-25T10:11:56;34.70;63.90
11264;DHT22;5689;48.798;9.070;2022-08-25T10:14:34;34.30;64.00
11264;DHT22;5689;48.798;9.070;2022-08-25T10:17:15;32.70;68.20
11264;DHT22;5689;48.798;9.070;2022-08-25T10:19:51;30.80;72.10
11264;DHT22;5689;48.798;9.070;2022-08-25T10:22:23;32.10;72.10
11264;DHT22;5689;48.798;9.070;2022-08-25T10:24:57;33.60;67.80
11264;DHT22;5689;48.798;9.070;2022-08-25T10:27:30;34.60;67.60
11264;DHT22;5689;48.798;9.070;2022-08-25T10:30:07;36.00;64.00
11264;DHT22;5689;48.798;9.070;2022-08-25T10:32:51;35.30;64.10
11264;DHT22;5689;48.798;9.070;2022-08-25T10:35:29;35.20;64.70
11264;DHT22;5689;48.798;9.070;2022-08-25T10:38:06;36.30;63.30
11264;DHT22;5689;48.798;9.070;2022-08-25T10:40:44;37.50;60.90
11264;DHT22;5689;48.798;9.070;2022-08-25T10:43:23;37.80;58.90
11264;DHT22;5689;48.798;9.070;2022-08-25T10:45:56;34.50;63.50
11264;DHT22;5689;48.798;9.070;2022-08-25T10:48:46;34.30;64.90
11264;DHT22;5689;48.798;9.070;2022-08-25T10:51:30;35.70;63.70
11264;DHT22;5689;48.798;9.070;2022-08-25T10:54:06;37.60;59.90
11264;DHT22;5689;48.798;9.070;2022-08-25T10:56:39;36.80;59.00
11264;DHT22;5689;48.798;9.070;2022-08-25T10:59:34;37.00;59.40
11264;DHT22;5689;48.798;9.070;2022-08-25T11:02:27;36.70;60.10
11264;DHT22;5689;48.798;9.070;2022-08-25T11:05:03;36.70;59.60
11264;DHT22;5689;48.798;9.070;2022-08-25T11:07:35;38.50;57.90
11264;DHT22;5689;48.798;9.070;2022-08-25T11:10:09;38.80;56.90
11264;DHT22;5689;48.798;9.070;2022-08-25T11:12:42;37.20;57.70
11264;DHT22;5689;48.798;9.070;2022-08-25T11:15:13;38.10;57.50
11264;DHT22;5689;48.798;9.070;2022-08-25T11:17:47;37.60;52.90
11264;DHT22;5689;48.798;9.070;2022-08-25T11:20:23;38.00;54.00
11264;DHT22;5689;48.798;9.070;2022-08-25T11:23:05;37.00;54.70
11264;DHT22;5689;48.798;9.070;2022-08-25T11:25:39;38.40;53.10
11264;DHT22;5689;48.798;9.070;2022-08-25T11:28:12;40.30;51.10
11264;DHT22;5689;48.798;9.070;2022-08-25T11:30:41;40.90;49.90
11264;DHT22;5689;48.798;9.070;2022-08-25T11:33:12;40.60;50.40
11264;DHT22;5689;48.798;9.070;2022-08-25T11:35:43;36.90;55.70
11264;DHT22;5689;48.798;9.070;2022-08-25T11:38:24;36.90;55.90
11264;DHT22;5689;48.798;9.070;2022-08-25T11:41:07;38.10;54.80
11264;DHT22;5689;48.798;9.070;2022-08-25T11:43:57;38.40;54.60
11264;DHT22;5689;48.798;9.070;2022-08-25T11:46:55;40.00;52.90
11264;DHT22;5689;48.798;9.070;2022-08-25T11:49:49;39.20;51.10
11264;DHT22;5689;48.798;9.070;2022-08-25T11:52:50;36.60;53.30
11264;DHT22;5689;48.798;9.070;2022-08-25T11:55:22;36.50;55.80
11264;DHT22;5689;48.798;9.070;2022-08-25T12:01:10;38.90;53.40
11264;DHT22;5689;48.798;9.070;2022-08-25T12:03:52;38.50;52.80
11264;DHT22;5689;48.798;9.070;2022-08-25T12:06:26;39.10;52.20
11264;DHT22;5689;48.798;9.070;2022-08-25T12:09:15;40.20;50.90
11264;DHT22;5689;48.798;9.070;2022-08-25T12:11:51;39.10;51.40
11264;DHT22;5689;48.798;9.070;2022-08-25T12:14:41;38.90;52.20
11264;DHT22;5689;48.798;9.070;2022-08-25T12:17:23;40.10;50.50
11264;DHT22;5689;48.798;9.070;2022-08-25T12:19:55;34.30;57.20
11264;DHT22;5689;48.798;9.070;2022-08-25T12:22:56;33.90;59.40
11264;DHT22;5689;48.798;9.070;2022-08-25T12:28:32;37.90;54.70
11264;DHT22;5689;48.798;9.070;2022-08-25T12:31:10;39.90;50.60
11264;DHT22;5689;48.798;9.070;2022-08-25T12:33:55;41.60;49.60
11264;DHT22;5689;48.798;9.070;2022-08-25T12:36:29;41.40;48.40
11264;DHT22;5689;48.798;9.070;2022-08-25T12:39:13;37.90;50.70
11264;DHT22;5689;48.798;9.070;2022-08-25T12:41:53;39.40;50.30
11264;DHT22;5689;48.798;9.070;2022-08-25T12:44:37;38.50;48.70
11264;DHT22;5689;48.798;9.070;2022-08-25T12:47:13;39.50;48.00
11264;DHT22;5689;48.798;9.070;2022-08-25T12:49:51;38.70;49.20
11264;DHT22;5689;48.798;9.070;2022-08-25T12:52:22;39.40;47.10
11264;DHT22;5689;48.798;9.070;2022-08-25T12:54:53;36.70;50.90
11264;DHT22;5689;48.798;9.070;2022-08-25T12:57:39;36.10;51.20
11264;DHT22;5689;48.798;9.070;2022-08-25T13:00:16;37.00;50.70
11264;DHT22;5689;48.798;9.070;2022-08-25T13:03:25;41.40;46.10
11264;DHT22;5689;48.798;9.070;2022-08-25T13:06:13;39.80;46.70
11264;DHT22;5689;48.798;9.070;2022-08-25T13:11:36;39.10;47.70
11264;DHT22;5689;48.798;9.070;2022-08-25T13:14:13;37.60;48.90
11264;DHT22;5689;48.798;9.070;2022-08-25T13:16:52;39.20;47.70
11264;DHT22;5689;48.798;9.070;2022-08-25T13:19:21;39.80;47.70
11264;DHT22;5689;48.798;9.070;2022-08-25T13:21:51;41.90;45.00
11264;DHT22;5689;48.798;9.070;2022-08-25T13:24:23;42.60;44.60
11264;DHT22;5689;48.798;9.070;2022-08-25T13:26:55;39.00;47.20
11264;DHT22;5689;48.798;9.070;2022-08-25T13:29:25;38.70;47.50
11264;DHT22;5689;48.798;9.070;2022-08-25T13:31:56;37.10;49.10
11264;DHT22;5689;48.798;9.070;2022-08-25T13:34:27;37.70;48.10
11264;DHT22;5689;48.798;9.070;2022-08-25T13:37:04;37.10;48.80
11264;DHT22;5689;48.798;9.070;2022-08-25T13:39:50;37.70;47.50
11264;DHT22;5689;48.798;9.070;2022-08-25T13:42:21;39.60;46.10
11264;DHT22;5689;48.798;9.070;2022-08-25T13:44:49;39.30;46.50
11264;DHT22;5689;48.798;9.070;2022-08-25T13:47:31;39.60;46.20
11264;DHT22;5689;48.798;9.070;2022-08-25T13:50:17;39.90;46.10
11264;DHT22;5689;48.798;9.070;2022-08-25T13:52:49;39.50;46.50
11264;DHT22;5689;48.798;9.070;2022-08-25T13:55:24;39.80;46.20
11264;DHT22;5689;48.798;9.070;2022-08-25T13:57:53;38.20;47.40
11264;DHT22;5689;48.798;9.070;2022-08-25T14:00:30;39.80;46.30
11264;DHT22;5689;48.798;9.070;2022-08-25T14:02:59;38.20;47.70
11264;DHT22;5689;48.798;9.070;2022-08-25T14:05:36;37.70;47.90
11264;DHT22;5689;48.798;9.070;2022-08-25T14:08:06;37.00;49.20
11264;DHT22;5689;48.798;9.070;2022-08-25T14:10:43;35.60;50.90
11264;DHT22;5689;48.798;9.070;2022-08-25T14:13:14;33.90;53.10
11264;DHT22;5689;48.798;9.070;2022-08-25T14:15:44;32.70;56.20
11264;DHT22;5689;48.798;9.070;2022-08-25T14:18:17;34.00;54.60
11264;DHT22;5689;48.798;9.070;2022-08-25T14:20:51;34.80;52.70
11264;DHT22;5689;48.798;9.070;2022-08-25T14:23:21;33.70;54.70
11264;DHT22;5689;48.798;9.070;2022-08-25T14:25:52;33.70;54.70
11264;DHT22;5689;48.798;9.070;2022-08-25T14:28:24;33.40;56.40
11264;DHT22;5689;48.798;9.070;2022-08-25T14:30:54;32.60;55.50
11264;DHT22;5689;48.798;9.070;2022-08-25T14:33:27;31.90;56.40
11264;DHT22;5689;48.798;9.070;2022-08-25T14:35:59;31.00;57.20
11264;DHT22;5689;48.798;9.070;2022-08-25T14:38:28;31.10;57.80
11264;DHT22;5689;48.798;9.070;2022-08-25T14:40:56;30.80;58.60
11264;DHT22;5689;48.798;9.070;2022-08-25T14:43:24;30.90;58.70
11264;DHT22;5689;48.798;9.070;2022-08-25T14:46:05;31.60;58.40
11264;DHT22;5689;48.798;9.070;2022-08-25T14:48:41;31.80;58.40
11264;DHT22;5689;48.798;9.070;2022-08-25T14:51:12;32.30;57.50
11264;DHT22;5689;48.798;9.070;2022-08-25T14:53:41;31.80;57.40
11264;DHT22;5689;48.798;9.070;2022-08-25T14:56:10;31.40;58.40
11264;DHT22;5689;48.798;9.070;2022-08-25T14:58:38;31.20;59.00
11264;DHT22;5689;48.798;9.070;2022-08-25T15:01:07;31.90;58.40
11264;DHT22;5689;48.798;9.070;2022-08-25T15:03:39;31.80;58.40
11264;DHT22;5689;48.798;9.070;2022-08-25T15:06:12;30.90;59.40
11264;DHT22;5689;48.798;9.070;2022-08-25T15:08:41;30.50;60.60
11264;DHT22;5689;48.798;9.070;2022-08-25T15:11:27;30.30;61.40
11264;DHT22;5689;48.798;9.070;2022-08-25T15:13:55;30.60;60.40
11264;DHT22;5689;48.798;9.070;2022-08-25T15:16:27;30.50;60.70
11264;DHT22;5689;48.798;9.070;2022-08-25T15:18:55;30.00;62.00
11264;DHT22;5689;48.798;9.070;2022-08-25T15:21:25;30.40;61.80
11264;DHT22;5689;48.798;9.070;2022-08-25T15:23:53;30.60;61.10
11264;DHT22;5689;48.798;9.070;2022-08-25T15:26:22;31.10;60.40
11264;DHT22;5689;48.798;9.070;2022-08-25T15:28:51;31.50;60.20
11264;DHT22;5689;48.798;9.070;2022-08-25T15:31:19;31.10;60.30
11264;DHT22;5689;48.798;9.070;2022-08-25T15:33:48;30.80;60.70
11264;DHT22;5689;48.798;9.070;2022-08-25T15:36:18;30.60;60.70
11264;DHT22;5689;48.798;9.070;2022-08-25T15:38:51;30.90;60.20
11264;DHT22;5689;48.798;9.070;2022-08-25T15:41:19;30.80;60.30
11264;DHT22;5689;48.798;9.070;2022-08-25T15:43:48;31.20;59.60
11264;DHT22;5689;48.798;9.070;2022-08-25T15:46:18;31.60;59.00
11264;DHT22;5689;48.798;9.070;2022-08-25T15:48:47;32.00;58.70
11264;DHT22;5689;48.798;9.070;2022-08-25T15:51:15;32.50;58.30
11264;DHT22;5689;48.798;9.070;2022-08-25T15:53:44;33.70;56.90
11264;DHT22;5689;48.798;9.070;2022-08-25T15:56:14;34.60;55.30
11264;DHT22;5689;48.798;9.070;2022-08-25T15:58:45;34.40;55.00
11264;DHT22;5689;48.798;9.070;2022-08-25T16:01:14;33.00;56.60
11264;DHT22;5689;48.798;9.070;2022-08-25T16:03:42;32.10;57.90
11264;DHT22;5689;48.798;9.070;2022-08-25T16:06:10;30.90;59.90
11264;DHT22;5689;48.798;9.070;2022-08-25T16:08:38;30.40;61.80
11264;DHT22;5689;48.798;9.070;2022-08-25T16:11:16;29.90;62.50
11264;DHT22;5689;48.798;9.070;2022-08-25T16:13:45;30.20;63.20
11264;DHT22;5689;48.798;9.070;2022-08-25T16:16:13;30.50;62.40
11264;DHT22;5689;48.798;9.070;2022-08-25T16:18:42;30.80;62.80
11264;DHT22;5689;48.798;9.070;2022-08-25T16:21:12;33.00;59.50
11264;DHT22;5689;48.798;9.070;2022-08-25T16:23:40;34.00;56.90
11264;DHT22;5689;48.798;9.070;2022-08-25T16:26:10;33.30;57.30